createdAt,value
2022-08-20T00:00:34.712Z,24.80
2022-08-20T00:03:09.159Z,24.80
2022-08-20T00:05:42.629Z,24.90
2022-08-20T00:08:13.476Z,24.90
2022-08-20T00:10:47.600Z,24.90
2022-08-20T00:13:23.446Z,24.90
2022-08-20T00:15:53.449Z,25.00
2022-08-20T00:18:24.137Z,25.00
2022-08-20T00:20:56.119Z,25.00
2022-08-20T00:23:26.610Z,25.00
2022-08-20T00:25:56.335Z,25.00
2022-08-20T00:28:25.862Z,25.00
2022-08-20T00:30:55.490Z,25.10
2022-08-20T00:33:26.578Z,25.10
2022-08-20T00:35:58.304Z,25.10
2022-08-20T00:38:28.116Z,25.10
2022-08-20T00:41:00.003Z,25.10
2022-08-20T00:43:50.783Z,25.10
2022-08-20T00:46:31.079Z,25.10
2022-08-20T00:49:04.776Z,25.10
2022-08-20T00:51:45.669Z,25.10
2022-08-20T00:54:37.297Z,25.10
2022-08-20T00:57:15.696Z,25.20
2022-08-20T00:59:45.799Z,25.10
2022-08-20T01:02:19.280Z,25.10
2022-08-20T01:04:53.336Z,25.20
2022-08-20T01:07:30.428Z,25.20
2022-08-20T01:10:00.917Z,25.20
2022-08-20T01:12:31.881Z,25.20
2022-08-20T01:15:03.787Z,25.20
2022-08-20T01:17:37.882Z,25.20
2022-08-20T01:20:13.604Z,25.20
2022-08-20T01:23:36.004Z,25.20
2022-08-20T01:26:31.177Z,25.20
2022-08-20T01:29:06.584Z,25.20
2022-08-20T01:31:39.021Z,25.20
2022-08-20T01:34:14.524Z,25.20
2022-08-20T01:36:54.643Z,25.10
2022-08-20T01:39:33.616Z,25.20
2022-08-20T01:42:14.663Z,25.20
2022-08-20T01:44:46.575Z,25.20
2022-08-20T01:47:28.477Z,25.20
2022-08-20T01:50:05.715Z,25.30
2022-08-20T01:52:52.180Z,25.30
2022-08-20T01:55:22.543Z,25.30
2022-08-20T01:57:52.969Z,25.40
2022-08-20T02:00:24.118Z,25.40
2022-08-20T02:02:54.095Z,25.40
2022-08-20T02:05:24.117Z,25.40
2022-08-20T02:08:00.130Z,25.50
2022-08-20T02:10:32.954Z,25.50
2022-08-20T02:13:03.917Z,25.50
2022-08-20T02:15:37.094Z,25.60
2022-08-20T02:18:12.062Z,25.50
2022-08-20T02:20:43.131Z,25.60
2022-08-20T02:23:14.628Z,25.60
2022-08-20T02:25:45.879Z,25.70
2022-08-20T02:28:18.488Z,25.60
2022-08-20T02:30:51.688Z,25.70
2022-08-20T02:33:24.655Z,25.70
2022-08-20T02:35:57.191Z,25.80
2022-08-20T02:38:27.319Z,25.80
2022-08-20T02:40:57.188Z,25.90
2022-08-20T02:43:26.823Z,25.90
2022-08-20T02:45:57.299Z,26.00
2022-08-20T02:48:27.297Z,26.00
2022-08-20T02:50:59.879Z,26.10
2022-08-20T02:53:30.978Z,26.20
2022-08-20T02:56:01.470Z,26.20
2022-08-20T02:58:32.177Z,26.30
2022-08-20T03:01:02.997Z,26.30
2022-08-20T03:03:32.619Z,26.40
2022-08-20T03:06:03.105Z,26.40
2022-08-20T03:08:32.798Z,26.50
2022-08-20T03:11:02.917Z,26.50
2022-08-20T03:13:32.617Z,26.50
2022-08-20T03:16:05.704Z,26.60
2022-08-20T03:18:40.349Z,26.60
2022-08-20T03:21:10.917Z,26.60
2022-08-20T03:23:45.351Z,26.60
2022-08-20T03:26:18.118Z,26.70
2022-08-20T03:28:47.868Z,26.70
2022-08-20T03:31:19.604Z,26.70
2022-08-20T03:33:53.529Z,26.70
2022-08-20T03:36:27.924Z,26.70
2022-08-20T03:39:05.086Z,26.70
2022-08-20T03:41:34.797Z,26.70
2022-08-20T03:44:05.739Z,26.70
2022-08-20T03:46:36.519Z,26.70
2022-08-20T03:49:06.820Z,26.80
2022-08-20T03:51:56.157Z,26.80
2022-08-20T03:54:31.631Z,26.80
2022-08-20T03:57:12.458Z,26.70
2022-08-20T03:59:44.579Z,26.70
2022-08-20T04:02:15.032Z,26.60
2022-08-20T04:04:44.981Z,26.60
2022-08-20T04:07:22.201Z,26.60
2022-08-20T04:09:51.759Z,26.60
2022-08-20T04:12:21.661Z,26.60
2022-08-20T04:14:52.524Z,26.60
2022-08-20T04:17:23.298Z,26.60
2022-08-20T04:19:52.857Z,26.60
2022-08-20T04:22:22.452Z,26.60
2022-08-20T04:24:52.337Z,26.60
2022-08-20T04:27:22.907Z,26.60
2022-08-20T04:29:52.557Z,26.70
2022-08-20T04:32:22.958Z,26.70
2022-08-20T04:34:53.829Z,26.70
2022-08-20T04:37:25.381Z,26.70
2022-08-20T04:40:14.657Z,26.70
2022-08-20T04:42:44.239Z,26.80
2022-08-20T04:45:14.021Z,26.80
2022-08-20T04:47:43.690Z,26.80
2022-08-20T04:50:15.447Z,26.90
2022-08-20T04:52:45.118Z,26.90
2022-08-20T04:55:14.750Z,27.00
2022-08-20T04:57:44.358Z,27.00
2022-08-20T05:00:19.029Z,27.10
2022-08-20T05:02:48.677Z,27.10
2022-08-20T05:05:18.203Z,27.10
2022-08-20T05:07:48.350Z,27.20
2022-08-20T05:10:20.497Z,27.20
2022-08-20T05:12:56.938Z,27.30
2022-08-20T05:15:27.716Z,27.30
2022-08-20T05:18:02.099Z,27.40
2022-08-20T05:20:33.384Z,27.40
2022-08-20T05:23:04.531Z,27.50
2022-08-20T05:25:34.439Z,27.50
2022-08-20T05:28:11.072Z,27.60
2022-08-20T05:30:44.570Z,27.60
2022-08-20T05:33:21.518Z,27.60
2022-08-20T05:35:54.206Z,27.70
2022-08-20T05:38:28.572Z,27.70
2022-08-20T05:40:58.221Z,27.70
2022-08-20T05:43:28.879Z,27.80
2022-08-20T05:46:00.281Z,27.80
2022-08-20T05:48:30.261Z,27.80
2022-08-20T05:51:00.239Z,27.80
2022-08-20T05:53:29.919Z,27.80
2022-08-20T05:55:59.529Z,27.90
2022-08-20T05:58:32.657Z,27.90
2022-08-20T06:01:03.551Z,27.90
2022-08-20T06:03:52.940Z,28.00
2022-08-20T06:06:44.967Z,28.00
2022-08-20T06:09:12.132Z,28.10
2022-08-20T06:11:41.865Z,28.20
2022-08-20T06:14:11.603Z,28.20
2022-08-20T06:16:50.401Z,28.30
2022-08-20T06:19:32.253Z,28.30
2022-08-20T06:22:17.540Z,28.40
2022-08-20T06:24:50.372Z,28.40
2022-08-20T06:27:20.178Z,28.40
2022-08-20T06:29:50.185Z,28.50
2022-08-20T06:32:31.965Z,28.50
2022-08-20T06:35:04.259Z,28.50
2022-08-20T06:37:35.282Z,28.60
2022-08-20T06:40:26.128Z,28.60
2022-08-20T06:42:56.468Z,28.60
2022-08-20T06:45:33.278Z,28.60
2022-08-20T06:48:07.369Z,28.60
2022-08-20T06:50:47.029Z,28.60
2022-08-20T06:53:20.526Z,28.60
2022-08-20T06:55:55.407Z,28.70
2022-08-20T06:58:30.440Z,28.60
2022-08-20T07:01:15.329Z,28.60
2022-08-20T07:03:54.642Z,28.60
2022-08-20T07:06:27.214Z,28.60
2022-08-20T07:08:57.809Z,28.60
2022-08-20T07:11:28.631Z,28.60
2022-08-20T07:14:01.585Z,28.60
2022-08-20T07:16:31.167Z,28.60
2022-08-20T07:19:00.930Z,28.60
2022-08-20T07:21:32.027Z,28.60
2022-08-20T07:24:01.590Z,28.60
2022-08-20T07:26:31.158Z,28.70
2022-08-20T07:29:00.839Z,28.70
2022-08-20T07:31:50.055Z,28.70
2022-08-20T07:34:19.745Z,28.70
2022-08-20T07:36:50.448Z,28.70
2022-08-20T07:39:20.518Z,28.70
2022-08-20T07:42:05.377Z,28.70
2022-08-20T07:44:34.962Z,28.70
2022-08-20T07:47:06.357Z,28.80
2022-08-20T07:49:40.497Z,28.80
2022-08-20T07:52:10.107Z,28.80
2022-08-20T07:54:39.972Z,28.90
2022-08-20T07:57:09.988Z,28.90
2022-08-20T07:59:41.801Z,29.00
2022-08-20T08:02:12.321Z,29.00
2022-08-20T08:04:42.395Z,29.00
2022-08-20T08:07:12.229Z,29.10
2022-08-20T08:09:42.177Z,29.10
2022-08-20T08:12:14.162Z,29.10
2022-08-20T08:14:47.679Z,29.20
2022-08-20T08:17:19.388Z,29.20
2022-08-20T08:19:52.198Z,29.20
2022-08-20T08:22:22.379Z,29.20
2022-08-20T08:24:57.005Z,29.30
2022-08-20T08:27:27.260Z,29.30
2022-08-20T08:29:56.998Z,29.30
2022-08-20T08:32:26.704Z,29.20
2022-08-20T08:34:56.377Z,29.20
2022-08-20T08:37:30.082Z,29.20
2022-08-20T08:40:00.449Z,29.20
2022-08-20T08:42:46.708Z,29.20
2022-08-20T08:45:19.316Z,29.20
2022-08-20T08:47:49.457Z,29.10
2022-08-20T08:50:50.049Z,29.10
2022-08-20T08:53:29.587Z,29.10
2022-08-20T08:56:01.633Z,29.10
2022-08-20T08:58:31.356Z,29.10
2022-08-20T09:01:02.120Z,29.10
2022-08-20T09:03:41.517Z,29.10
2022-08-20T09:06:14.119Z,29.10
2022-08-20T09:08:58.620Z,29.10
2022-08-20T09:11:29.324Z,29.10
2022-08-20T09:14:00.282Z,29.10
2022-08-20T09:16:52.462Z,29.10
2022-08-20T09:19:20.305Z,29.10
2022-08-20T09:21:50.232Z,29.20
2022-08-20T09:24:20.142Z,29.20
2022-08-20T09:26:49.833Z,29.20
2022-08-20T09:29:19.930Z,29.10
2022-08-20T09:31:50.626Z,29.10
2022-08-20T09:34:20.239Z,29.10
2022-08-20T09:36:49.786Z,29.10
2022-08-20T09:39:19.440Z,29.10
2022-08-20T09:41:49.106Z,29.10
2022-08-20T09:44:19.168Z,29.10
2022-08-20T09:46:48.744Z,29.10
2022-08-20T09:49:18.443Z,29.10
2022-08-20T09:51:48.013Z,29.10
2022-08-20T09:54:17.487Z,29.10
2022-08-20T09:56:47.089Z,29.10
2022-08-20T09:59:18.134Z,29.10
2022-08-20T10:01:47.732Z,29.10
2022-08-20T10:04:18.137Z,29.10
2022-08-20T10:06:47.996Z,29.10
2022-08-20T10:09:17.842Z,29.10
2022-08-20T10:11:47.396Z,29.00
2022-08-20T10:14:16.940Z,29.00
2022-08-20T10:16:46.502Z,29.00
2022-08-20T10:19:16.082Z,29.00
2022-08-20T10:21:45.606Z,28.90
2022-08-20T10:24:16.372Z,28.90
2022-08-20T10:26:46.144Z,28.80
2022-08-20T10:29:16.876Z,28.80
2022-08-20T10:31:46.412Z,28.80
2022-08-20T10:34:15.920Z,28.70
2022-08-20T10:36:46.498Z,28.70
2022-08-20T10:39:16.285Z,28.70
2022-08-20T10:41:45.906Z,28.70
2022-08-20T10:44:19.345Z,28.60
2022-08-20T10:46:48.870Z,28.50
2022-08-20T10:49:21.619Z,28.50
2022-08-20T10:51:51.267Z,28.50
2022-08-20T10:54:20.987Z,28.50
2022-08-20T10:56:51.038Z,28.40
2022-08-20T10:59:21.479Z,28.40
2022-08-20T11:01:51.077Z,28.40
2022-08-20T11:04:21.479Z,28.40
2022-08-20T11:06:51.043Z,28.30
2022-08-20T11:09:20.629Z,28.30
2022-08-20T11:11:50.256Z,28.30
2022-08-20T11:14:20.034Z,28.30
2022-08-20T11:16:49.600Z,28.20
2022-08-20T11:19:19.204Z,28.20
2022-08-20T11:21:48.690Z,28.20
2022-08-20T11:24:18.181Z,28.10
2022-08-20T11:26:49.762Z,28.10
2022-08-20T11:29:19.473Z,28.10
2022-08-20T11:31:49.026Z,28.00
2022-08-20T11:34:19.261Z,28.00
2022-08-20T11:36:49.996Z,28.00
2022-08-20T11:39:19.596Z,28.00
2022-08-20T11:41:49.520Z,28.00
2022-08-20T11:44:24.939Z,28.00
2022-08-20T11:46:54.442Z,28.00
2022-08-20T11:49:23.991Z,28.00
2022-08-20T11:51:53.556Z,28.00
2022-08-20T11:54:23.256Z,27.90
2022-08-20T11:56:52.781Z,27.80
2022-08-20T11:59:22.576Z,27.70
2022-08-20T12:02:03.250Z,27.50
2022-08-20T12:04:35.086Z,27.20
2022-08-20T12:07:14.562Z,26.90
2022-08-20T12:09:50.912Z,26.40
2022-08-20T12:12:23.984Z,26.00
2022-08-20T12:14:56.739Z,25.70
2022-08-20T12:17:29.431Z,25.30
2022-08-20T12:20:02.758Z,25.10
2022-08-20T12:22:32.306Z,24.90
2022-08-20T12:25:01.977Z,24.60
2022-08-20T12:27:34.282Z,24.30
2022-08-20T12:30:11.899Z,24.10
2022-08-20T12:32:42.086Z,23.90
2022-08-20T12:35:13.257Z,23.80
2022-08-20T12:37:43.993Z,23.70
2022-08-20T12:40:17.324Z,23.60
2022-08-20T12:42:56.670Z,23.50
2022-08-20T12:45:27.586Z,23.40
2022-08-20T12:48:10.447Z,23.40
2022-08-20T12:50:42.277Z,23.40
2022-08-20T12:53:12.154Z,23.40
2022-08-20T12:55:41.870Z,23.30
2022-08-20T12:58:12.458Z,23.30
2022-08-20T13:00:50.303Z,23.20
2022-08-20T13:03:22.443Z,23.20
2022-08-20T13:05:53.224Z,23.10
2022-08-20T13:08:22.933Z,23.00
2022-08-20T13:10:52.553Z,23.00
2022-08-20T13:13:22.296Z,23.00
2022-08-20T13:15:52.948Z,23.00
2022-08-20T13:18:22.835Z,23.10
2022-08-20T13:20:52.507Z,23.10
2022-08-20T13:23:22.040Z,23.10
2022-08-20T13:25:52.107Z,23.10
2022-08-20T13:28:21.663Z,23.10
2022-08-20T13:30:52.419Z,23.10
2022-08-20T13:33:22.083Z,23.10
2022-08-20T13:35:51.934Z,23.10
2022-08-20T13:38:21.747Z,23.10
2022-08-20T13:40:51.814Z,23.10
2022-08-20T13:43:21.321Z,23.20
2022-08-20T13:45:50.929Z,23.20
2022-08-20T13:48:20.578Z,23.30
2022-08-20T13:50:50.207Z,23.40
2022-08-20T13:53:19.907Z,23.40
2022-08-20T13:55:49.816Z,23.50
2022-08-20T13:58:20.178Z,23.50
2022-08-20T14:00:49.947Z,23.60
2022-08-20T14:03:20.139Z,23.60
2022-08-20T14:05:56.453Z,23.50
2022-08-20T14:08:26.743Z,23.50
2022-08-20T14:10:56.830Z,23.40
2022-08-20T14:13:28.238Z,23.40
2022-08-20T14:15:58.515Z,23.30
2022-08-20T14:18:32.447Z,23.30
2022-08-20T14:21:05.174Z,23.40
2022-08-20T14:23:36.749Z,23.40
2022-08-20T14:26:06.655Z,23.40
2022-08-20T14:28:36.324Z,23.50
2022-08-20T14:31:05.890Z,23.50
2022-08-20T14:33:36.165Z,23.60
2022-08-20T14:36:07.006Z,23.60
2022-08-20T14:38:36.648Z,23.60
2022-08-20T14:41:06.287Z,23.60
2022-08-20T14:43:35.885Z,23.60
2022-08-20T14:46:05.589Z,23.60
2022-08-20T14:48:35.175Z,23.60
2022-08-20T14:51:04.867Z,23.60
2022-08-20T14:53:40.378Z,23.60
2022-08-20T14:56:10.381Z,23.50
2022-08-20T14:58:39.987Z,23.40
2022-08-20T15:01:09.694Z,23.30
2022-08-20T15:03:39.398Z,23.30
2022-08-20T15:06:22.371Z,23.30
2022-08-20T15:08:52.123Z,23.20
2022-08-20T15:11:21.826Z,23.20
2022-08-20T15:13:51.588Z,23.10
2022-08-20T15:16:23.157Z,23.10
2022-08-20T15:18:56.537Z,23.10
2022-08-20T15:21:30.100Z,23.10
2022-08-20T15:24:19.355Z,23.10
2022-08-20T15:26:49.641Z,23.10
2022-08-20T15:29:23.112Z,23.20
2022-08-20T15:31:53.609Z,23.20
2022-08-20T15:34:23.198Z,23.20
2022-08-20T15:36:52.856Z,23.30
2022-08-20T15:39:22.418Z,23.30
2022-08-20T15:41:52.132Z,23.30
2022-08-20T15:44:21.767Z,23.30
2022-08-20T15:46:51.398Z,23.30
2022-08-20T15:49:22.197Z,23.30
2022-08-20T15:51:52.844Z,23.20
2022-08-20T15:54:29.258Z,23.20
2022-08-20T15:57:28.366Z,23.10
2022-08-20T16:00:23.537Z,23.10
2022-08-20T16:03:26.917Z,23.10
2022-08-20T16:06:20.827Z,23.10
2022-08-20T16:09:25.163Z,23.10
2022-08-20T16:12:09.488Z,23.10
2022-08-20T16:14:45.873Z,23.10
2022-08-20T16:17:33.727Z,23.20
2022-08-20T16:20:24.451Z,23.20
2022-08-20T16:22:54.487Z,23.20
2022-08-20T16:25:32.138Z,23.20
2022-08-20T16:28:19.436Z,23.20
2022-08-20T16:30:52.850Z,23.20
2022-08-20T16:33:33.846Z,23.30
2022-08-20T16:36:35.707Z,23.20
2022-08-20T16:39:10.147Z,23.20
2022-08-20T16:41:50.098Z,23.20
2022-08-20T16:44:44.636Z,23.20
2022-08-20T16:47:33.666Z,23.10
2022-08-20T16:50:21.579Z,23.10
2022-08-20T16:52:53.341Z,23.10
2022-08-20T16:55:25.222Z,23.10
2022-08-20T16:57:55.676Z,23.10
2022-08-20T17:00:44.906Z,23.10
2022-08-20T17:03:40.055Z,23.10
2022-08-20T17:06:26.986Z,23.10
2022-08-20T17:08:57.597Z,23.20
2022-08-20T17:11:34.648Z,23.10
2022-08-20T17:14:08.938Z,23.10
2022-08-20T17:16:47.128Z,23.10
2022-08-20T17:19:32.668Z,23.00
2022-08-20T17:22:16.020Z,23.00
2022-08-20T17:24:45.708Z,23.00
2022-08-20T17:27:28.957Z,23.10
2022-08-20T17:30:08.347Z,23.10
2022-08-20T17:32:48.246Z,23.10
2022-08-20T17:35:44.954Z,23.10
2022-08-20T17:38:49.057Z,23.10
2022-08-20T17:41:34.447Z,23.10
2022-08-20T17:44:23.125Z,23.10
2022-08-20T17:46:53.696Z,23.10
2022-08-20T17:49:41.358Z,23.10
2022-08-20T17:52:21.157Z,23.10
2022-08-20T17:54:51.859Z,23.20
2022-08-20T17:57:27.567Z,23.20
2022-08-20T18:00:09.667Z,23.30
2022-08-20T18:02:39.594Z,23.30
2022-08-20T18:05:17.007Z,23.30
2022-08-20T18:08:22.080Z,23.30
2022-08-20T18:11:03.678Z,23.30
2022-08-20T18:14:08.893Z,23.40
2022-08-20T18:17:12.628Z,23.40
2022-08-20T18:20:21.393Z,23.40
2022-08-20T18:23:07.590Z,23.40
2022-08-20T18:25:56.719Z,23.30
2022-08-20T18:28:38.530Z,23.30
2022-08-20T18:31:12.026Z,23.30
2022-08-20T18:33:44.432Z,23.30
2022-08-20T18:36:27.972Z,23.30
2022-08-20T18:39:13.801Z,23.30
2022-08-20T18:41:58.283Z,23.30
2022-08-20T18:44:44.043Z,23.30
2022-08-20T18:47:45.503Z,23.30
2022-08-20T18:50:52.543Z,23.30
2022-08-20T18:53:43.321Z,23.30
2022-08-20T18:56:22.677Z,23.30
2022-08-20T18:59:05.810Z,23.30
2022-08-20T19:01:42.410Z,23.30
2022-08-20T19:04:34.235Z,23.30
2022-08-20T19:07:12.281Z,23.30
2022-08-20T19:10:28.277Z,23.40
2022-08-20T19:13:29.660Z,23.40
2022-08-20T19:16:07.850Z,23.40
2022-08-20T19:18:58.247Z,23.40
2022-08-20T19:21:34.353Z,23.40
2022-08-20T19:24:09.485Z,23.50
